createdAt,value
2022-10-02T00:01:11.487Z,22.78
2022-10-02T00:03:42.797Z,22.77
2022-10-02T00:06:20.494Z,22.77
2022-10-02T00:08:53.573Z,22.77
2022-10-02T00:11:27.124Z,22.76
2022-10-02T00:14:04.261Z,22.76
2022-10-02T00:16:34.630Z,22.76
2022-10-02T00:19:04.123Z,22.75
2022-10-02T00:21:53.978Z,22.75
2022-10-02T00:24:37.420Z,22.74
2022-10-02T00:27:23.709Z,22.74
2022-10-02T00:29:56.383Z,22.74
2022-10-02T00:32:45.971Z,22.73
2022-10-02T00:35:31.029Z,22.73
2022-10-02T00:38:10.768Z,22.72
2022-10-02T00:40:44.792Z,22.72
2022-10-02T00:43:33.547Z,22.72
2022-10-02T00:46:38.807Z,22.72
2022-10-02T00:49:39.119Z,22.71
2022-10-02T00:52:36.982Z,22.71
2022-10-02T00:55:16.685Z,22.71
2022-10-02T00:58:02.934Z,22.71
2022-10-02T01:00:31.920Z,22.71
2022-10-02T01:03:16.886Z,22.71
2022-10-02T01:05:45.599Z,22.71
2022-10-02T01:08:14.396Z,22.70
2022-10-02T01:10:43.058Z,22.71
2022-10-02T01:13:11.018Z,22.70
2022-10-02T01:15:44.625Z,22.70
2022-10-02T01:18:15.147Z,22.70
2022-10-02T01:20:49.064Z,22.70
2022-10-02T01:23:35.464Z,22.70
2022-10-02T01:26:04.047Z,22.70
2022-10-02T01:28:32.298Z,22.70
2022-10-02T01:31:10.586Z,22.70
2022-10-02T01:33:41.757Z,22.70
2022-10-02T01:36:11.287Z,22.70
2022-10-02T01:38:41.655Z,22.70
2022-10-02T01:41:11.626Z,22.69
2022-10-02T01:43:53.734Z,22.69
2022-10-02T01:46:21.906Z,22.68
2022-10-02T01:49:18.461Z,22.68
2022-10-02T01:51:52.454Z,22.67
2022-10-02T01:54:57.994Z,22.68
2022-10-02T01:57:53.313Z,22.67
2022-10-02T02:00:25.278Z,22.67
2022-10-02T02:03:39.535Z,22.67
2022-10-02T02:06:15.171Z,22.66
2022-10-02T02:09:06.590Z,22.66
2022-10-02T02:11:40.014Z,22.66
2022-10-02T02:14:14.621Z,22.66
2022-10-02T02:16:52.243Z,22.65
2022-10-02T02:19:31.337Z,22.65
2022-10-02T02:22:12.318Z,22.64
2022-10-02T02:25:21.579Z,22.64
2022-10-02T02:28:00.874Z,22.64
2022-10-02T02:30:31.935Z,22.63
2022-10-02T02:33:06.244Z,22.63
2022-10-02T02:35:39.563Z,22.63
2022-10-02T02:38:14.911Z,22.63
2022-10-02T02:40:45.939Z,22.62
2022-10-02T02:43:20.222Z,22.62
2022-10-02T02:45:55.859Z,22.61
2022-10-02T02:48:51.418Z,22.62
2022-10-02T02:51:26.675Z,22.62
2022-10-02T02:54:08.278Z,22.62
2022-10-02T02:56:37.374Z,22.61
2022-10-02T02:59:10.691Z,22.61
2022-10-02T03:01:38.809Z,22.61
2022-10-02T03:04:07.298Z,22.60
2022-10-02T03:06:42.012Z,22.60
2022-10-02T03:09:19.511Z,22.60
2022-10-02T03:12:00.783Z,22.59
2022-10-02T03:14:43.598Z,22.59
2022-10-02T03:17:40.968Z,22.59
2022-10-02T03:20:19.698Z,22.58
2022-10-02T03:23:26.277Z,22.58
2022-10-02T03:26:00.779Z,22.57
2022-10-02T03:28:57.208Z,22.57
2022-10-02T03:31:29.918Z,22.56
2022-10-02T03:34:00.827Z,22.57
2022-10-02T03:36:29.695Z,22.56
2022-10-02T03:41:50.642Z,22.56
2022-10-02T03:44:18.721Z,22.56
2022-10-02T03:46:46.854Z,22.56
2022-10-02T03:49:14.969Z,22.55
2022-10-02T03:51:43.031Z,22.55
2022-10-02T03:54:20.026Z,22.54
2022-10-02T03:56:57.015Z,22.53
2022-10-02T03:59:43.810Z,22.53
2022-10-02T04:02:21.405Z,22.53
2022-10-02T04:05:21.260Z,22.53
2022-10-02T04:07:53.620Z,22.52
2022-10-02T04:10:40.503Z,22.52
2022-10-02T04:13:17.073Z,22.53
2022-10-02T04:16:04.027Z,22.52
2022-10-02T04:18:40.030Z,22.52
2022-10-02T04:21:43.659Z,22.52
2022-10-02T04:24:45.837Z,22.52
2022-10-02T04:27:32.335Z,22.51
2022-10-02T04:30:04.606Z,22.51
2022-10-02T04:32:37.155Z,22.50
2022-10-02T04:35:17.437Z,22.50
2022-10-02T04:37:51.100Z,22.50
2022-10-02T04:40:50.753Z,22.49
2022-10-02T04:43:55.988Z,22.49
2022-10-02T04:46:29.697Z,22.48
2022-10-02T04:49:34.325Z,22.48
2022-10-02T04:52:21.136Z,22.47
2022-10-02T04:55:21.251Z,22.46
2022-10-02T04:58:08.686Z,22.46
2022-10-02T05:00:47.870Z,22.45
2022-10-02T05:03:25.341Z,22.45
2022-10-02T05:06:17.447Z,22.45
2022-10-02T05:08:51.346Z,22.44
2022-10-02T05:11:35.297Z,22.44
2022-10-02T05:14:09.308Z,22.43
2022-10-02T05:17:06.895Z,22.43
2022-10-02T05:19:50.302Z,22.43
2022-10-02T05:22:36.910Z,22.44
2022-10-02T05:25:29.659Z,22.45
2022-10-02T05:28:44.726Z,22.46
2022-10-02T05:31:33.675Z,22.46
2022-10-02T05:34:19.679Z,22.48
2022-10-02T05:36:47.556Z,22.50
2022-10-02T05:39:27.835Z,22.54
2022-10-02T05:41:55.997Z,22.57
2022-10-02T05:44:38.672Z,22.61
2022-10-02T05:47:09.891Z,22.65
2022-10-02T05:49:44.802Z,22.68
2022-10-02T05:52:26.365Z,22.71
2022-10-02T05:55:00.601Z,22.75
2022-10-02T05:58:02.335Z,22.80
2022-10-02T06:00:47.154Z,22.84
2022-10-02T06:03:26.853Z,22.88
2022-10-02T06:06:07.739Z,22.93
2022-10-02T06:08:46.556Z,22.97
2022-10-02T06:11:28.343Z,23.03
2022-10-02T06:14:14.480Z,23.09
2022-10-02T06:17:04.626Z,23.14
2022-10-02T06:19:39.208Z,23.19
2022-10-02T06:22:19.513Z,23.24
2022-10-02T06:24:55.672Z,23.30
2022-10-02T06:27:47.179Z,23.36
2022-10-02T06:30:22.682Z,23.41
2022-10-02T06:33:15.586Z,23.45
2022-10-02T06:35:46.686Z,23.51
2022-10-02T06:38:39.998Z,23.55
2022-10-02T06:41:25.164Z,23.59
2022-10-02T06:44:30.099Z,23.62
2022-10-02T06:47:24.247Z,23.64
2022-10-02T06:50:29.299Z,23.66
2022-10-02T06:53:09.286Z,23.64
2022-10-02T06:56:01.347Z,23.52
2022-10-02T06:58:47.371Z,23.37
2022-10-02T07:01:27.322Z,23.23
2022-10-02T07:03:57.988Z,23.11
2022-10-02T07:06:26.266Z,23.04
2022-10-02T07:09:11.620Z,23.02
2022-10-02T07:12:05.643Z,23.01
2022-10-02T07:15:18.162Z,23.01
2022-10-02T07:17:55.526Z,23.04
2022-10-02T07:20:34.523Z,23.05
2022-10-02T07:23:10.206Z,23.08
2022-10-02T07:26:06.132Z,23.11
2022-10-02T07:28:55.729Z,23.14
2022-10-02T07:31:42.843Z,23.17
2022-10-02T07:34:46.961Z,23.18
2022-10-02T07:37:35.802Z,23.21
2022-10-02T07:40:10.937Z,23.22
2022-10-02T07:42:42.081Z,23.24
2022-10-02T07:45:16.025Z,23.25
2022-10-02T07:48:21.540Z,23.27
2022-10-02T07:51:32.912Z,23.28
2022-10-02T07:54:24.959Z,23.30
2022-10-02T07:56:58.345Z,23.31
2022-10-02T07:59:28.169Z,23.32
2022-10-02T08:01:56.578Z,23.34
2022-10-02T08:04:37.146Z,23.35
2022-10-02T08:07:07.122Z,23.36
2022-10-02T08:09:44.007Z,23.37
2022-10-02T08:12:17.805Z,23.38
2022-10-02T08:14:47.014Z,23.40
2022-10-02T08:17:42.720Z,23.40
2022-10-02T08:20:40.402Z,23.41
2022-10-02T08:23:49.939Z,23.42
2022-10-02T08:26:18.012Z,23.43
2022-10-02T08:29:01.746Z,23.44
2022-10-02T08:31:30.171Z,23.45
2022-10-02T08:34:01.010Z,23.46
2022-10-02T08:36:59.661Z,23.47
2022-10-02T08:40:05.007Z,23.48
2022-10-02T08:43:08.613Z,23.49
2022-10-02T08:46:02.628Z,23.50
2022-10-02T08:48:55.958Z,23.51
2022-10-02T08:51:57.930Z,23.51
2022-10-02T08:54:51.508Z,23.51
2022-10-02T08:57:32.557Z,23.52
2022-10-02T09:00:24.605Z,23.52
2022-10-02T09:03:13.864Z,23.51
2022-10-02T09:05:56.804Z,23.50
2022-10-02T09:09:01.408Z,23.49
2022-10-02T09:11:47.411Z,23.49
2022-10-02T09:14:46.306Z,23.48
2022-10-02T09:17:31.204Z,23.48
2022-10-02T09:20:05.221Z,23.47
2022-10-02T09:22:48.215Z,23.46
2022-10-02T09:25:28.570Z,23.46
2022-10-02T09:28:05.534Z,23.45
2022-10-02T09:31:10.140Z,23.44
2022-10-02T09:33:56.292Z,23.44
2022-10-02T09:36:51.272Z,23.43
2022-10-02T09:39:57.540Z,23.43
2022-10-02T09:42:25.814Z,23.42
2022-10-02T09:45:03.004Z,23.42
2022-10-02T09:47:52.366Z,23.42
2022-10-02T09:50:41.629Z,23.42
2022-10-02T09:53:57.727Z,23.42
2022-10-02T09:56:25.591Z,23.42
2022-10-02T09:59:17.423Z,23.42
2022-10-02T10:02:13.013Z,23.41
2022-10-02T10:05:05.095Z,23.41
2022-10-02T10:07:34.692Z,23.41
2022-10-02T10:10:52.123Z,23.41
2022-10-02T10:13:52.179Z,23.41
2022-10-02T10:16:41.654Z,23.41
2022-10-02T10:19:42.070Z,23.42
2022-10-02T10:22:40.326Z,23.42
2022-10-02T10:25:50.489Z,23.43
2022-10-02T10:28:35.653Z,23.43
2022-10-02T10:31:10.503Z,23.44
2022-10-02T10:34:02.826Z,23.44
2022-10-02T10:37:19.846Z,23.45
2022-10-02T10:40:25.712Z,23.45
2022-10-02T10:43:18.561Z,23.46
2022-10-02T10:46:06.469Z,23.47
2022-10-02T10:49:00.673Z,23.47
2022-10-02T10:52:04.068Z,23.48
2022-10-02T10:54:57.478Z,23.48
2022-10-02T10:57:29.720Z,23.48
2022-10-02T11:00:25.431Z,23.49
2022-10-02T11:03:15.108Z,23.50
2022-10-02T11:06:04.780Z,23.50
2022-10-02T11:08:58.659Z,23.51
2022-10-02T11:11:41.900Z,23.52
2022-10-02T11:14:19.818Z,23.53
2022-10-02T11:17:21.343Z,23.53
2022-10-02T11:20:13.786Z,23.55
2022-10-02T11:22:54.762Z,23.56
2022-10-02T11:25:31.704Z,23.56
2022-10-02T11:28:30.269Z,23.58
2022-10-02T11:31:30.384Z,23.60
2022-10-02T11:34:04.254Z,23.63
2022-10-02T11:37:09.912Z,23.65
2022-10-02T11:40:13.102Z,23.67
2022-10-02T11:43:03.093Z,23.69
2022-10-02T11:45:46.392Z,23.70
2022-10-02T11:48:41.198Z,23.72
2022-10-02T11:51:20.955Z,23.75
2022-10-02T11:54:02.048Z,23.77
2022-10-02T11:56:46.330Z,23.80
2022-10-02T11:59:23.608Z,23.84
2022-10-02T12:02:16.662Z,23.89
2022-10-02T12:05:32.117Z,23.95
2022-10-02T12:08:35.225Z,24.03
2022-10-02T12:11:03.283Z,24.12
2022-10-02T12:13:52.766Z,24.19
2022-10-02T12:16:32.369Z,24.24
2022-10-02T12:19:15.216Z,24.28
2022-10-02T12:22:45.453Z,24.32
2022-10-02T12:25:57.721Z,24.36
2022-10-02T12:28:34.767Z,24.38
2022-10-02T12:31:25.324Z,24.40
2022-10-02T12:34:34.376Z,24.41
2022-10-02T12:37:19.649Z,24.39
2022-10-02T12:40:03.231Z,24.39
2022-10-02T12:42:55.081Z,24.38
2022-10-02T12:45:44.243Z,24.36
2022-10-02T12:48:15.228Z,24.34
2022-10-02T12:50:43.797Z,24.33
2022-10-02T12:53:33.389Z,24.31
2022-10-02T12:56:37.294Z,24.28
2022-10-02T12:59:14.022Z,24.25
2022-10-02T13:02:33.232Z,24.23
2022-10-02T13:05:32.232Z,24.19
2022-10-02T13:08:19.038Z,24.16
2022-10-02T13:10:57.594Z,24.12
2022-10-02T13:14:02.327Z,24.10
2022-10-02T13:16:36.085Z,24.07
2022-10-02T13:19:12.067Z,24.04
2022-10-02T13:21:59.100Z,24.02
2022-10-02T13:25:05.982Z,24.00
2022-10-02T13:27:40.283Z,23.98
2022-10-02T13:30:17.029Z,23.97
2022-10-02T13:33:08.501Z,23.95
2022-10-02T13:35:44.516Z,23.94
2022-10-02T13:38:50.237Z,23.92
2022-10-02T13:41:46.923Z,23.91
2022-10-02T13:44:34.239Z,23.90
2022-10-02T13:47:17.670Z,23.89
2022-10-02T13:50:04.280Z,23.88
2022-10-02T13:52:47.502Z,23.86
2022-10-02T13:55:25.955Z,23.85
2022-10-02T13:58:29.835Z,23.84
2022-10-02T14:01:12.916Z,23.81
2022-10-02T14:03:59.601Z,23.81
2022-10-02T14:06:35.824Z,23.80
2022-10-02T14:09:20.510Z,23.78
2022-10-02T14:12:20.714Z,23.77
2022-10-02T14:14:57.071Z,23.75
2022-10-02T14:17:49.015Z,23.73
2022-10-02T14:20:28.379Z,23.72
2022-10-02T14:23:22.116Z,23.71
2022-10-02T14:26:06.355Z,23.70
2022-10-02T14:28:49.491Z,23.70
2022-10-02T14:31:36.560Z,23.69
2022-10-02T14:34:16.670Z,23.69
2022-10-02T14:37:16.843Z,23.69
2022-10-02T14:39:45.893Z,23.69
2022-10-02T14:42:14.183Z,23.69
2022-10-02T14:44:50.747Z,23.70
2022-10-02T14:47:24.541Z,23.70
2022-10-02T14:50:37.271Z,23.70
2022-10-02T14:53:42.915Z,23.70
2022-10-02T14:56:42.022Z,23.69
2022-10-02T14:59:39.671Z,23.68
2022-10-02T15:02:10.619Z,23.68
2022-10-02T15:04:41.718Z,23.67
2022-10-02T15:07:16.593Z,23.67
2022-10-02T15:10:38.381Z,23.67
2022-10-02T15:13:24.438Z,23.67
2022-10-02T15:16:38.983Z,23.67
2022-10-02T15:19:23.798Z,23.67
2022-10-02T15:22:02.674Z,23.68
2022-10-02T15:24:44.454Z,23.67
2022-10-02T15:27:18.268Z,23.67
2022-10-02T15:30:04.485Z,23.67
2022-10-02T15:32:51.982Z,23.64
2022-10-02T15:35:35.839Z,23.62
2022-10-02T15:38:09.762Z,23.59
2022-10-02T15:40:59.727Z,23.56
2022-10-02T15:43:30.458Z,23.54
2022-10-02T15:46:15.937Z,23.52
2022-10-02T15:49:02.998Z,23.49
2022-10-02T15:51:58.054Z,23.48
2022-10-02T15:55:01.462Z,23.46
2022-10-02T15:58:06.093Z,23.44
2022-10-02T16:01:01.463Z,23.41
2022-10-02T16:03:49.340Z,23.40
2022-10-02T16:06:32.047Z,23.38
2022-10-02T16:09:24.214Z,23.37
2022-10-02T16:12:27.386Z,23.37
2022-10-02T16:15:20.043Z,23.36
2022-10-02T16:18:06.054Z,23.36
2022-10-02T16:20:42.286Z,23.35
2022-10-02T16:23:13.122Z,23.34
2022-10-02T16:26:01.034Z,23.33
2022-10-02T16:28:47.464Z,23.32
2022-10-02T16:31:34.289Z,23.31
2022-10-02T16:34:16.782Z,23.30
2022-10-02T16:37:15.913Z,23.29
2022-10-02T16:39:44.245Z,23.28
2022-10-02T16:42:29.644Z,23.26
2022-10-02T16:45:23.966Z,23.26
2022-10-02T16:48:21.188Z,23.27
2022-10-02T16:51:08.744Z,23.28
2022-10-02T16:53:54.909Z,23.30
2022-10-02T16:56:32.528Z,23.33
2022-10-02T16:59:12.753Z,23.36
2022-10-02T17:02:18.655Z,23.40
2022-10-02T17:05:02.047Z,23.46
2022-10-02T17:07:53.069Z,23.52
2022-10-02T17:10:33.622Z,23.56
2022-10-02T17:13:37.629Z,23.62
2022-10-02T17:16:09.688Z,23.68
2022-10-02T17:18:57.970Z,23.72
2022-10-02T17:21:44.741Z,23.78
2022-10-02T17:24:38.429Z,23.82
2022-10-02T17:27:34.362Z,23.87
2022-10-02T17:30:05.184Z,23.92
2022-10-02T17:32:49.133Z,23.95
2022-10-02T17:35:33.084Z,23.99
2022-10-02T17:38:20.769Z,24.02
2022-10-02T17:41:00.875Z,24.07
2022-10-02T17:43:50.752Z,24.10
2022-10-02T17:46:37.797Z,24.13
2022-10-02T17:49:11.869Z,24.16
2022-10-02T17:52:24.082Z,24.19
2022-10-02T17:55:25.131Z,24.20
2022-10-02T17:58:23.910Z,24.22
2022-10-02T18:00:57.959Z,24.23
2022-10-02T18:03:52.223Z,24.24
2022-10-02T18:06:53.677Z,24.25
2022-10-02T18:09:47.216Z,24.25
2022-10-02T18:12:43.991Z,24.25
2022-10-02T18:15:29.858Z,24.25
2022-10-02T18:18:33.922Z,24.26
2022-10-02T18:21:08.221Z,24.25
2022-10-02T18:23:47.448Z,24.25
2022-10-02T18:26:43.576Z,24.25
2022-10-02T18:29:15.221Z,24.24
2022-10-02T18:32:22.162Z,24.24
2022-10-02T18:35:22.437Z,24.23
2022-10-02T18:38:11.523Z,24.22
2022-10-02T18:40:55.649Z,24.21
2022-10-02T18:44:06.831Z,24.19
2022-10-02T18:47:02.677Z,24.18
2022-10-02T18:50:00.809Z,24.17
2022-10-02T18:53:00.435Z,24.16
2022-10-02T18:56:03.271Z,24.14
2022-10-02T18:58:53.539Z,24.13
2022-10-02T19:01:24.387Z,24.12
2022-10-02T19:03:58.436Z,24.11
2022-10-02T19:06:35.045Z,24.10
2022-10-02T19:09:08.819Z,24.09
2022-10-02T19:11:48.993Z,24.07
2022-10-02T19:14:26.470Z,24.06
2022-10-02T19:17:14.405Z,24.04
2022-10-02T19:19:43.690Z,24.03
2022-10-02T19:22:26.132Z,24.02
2022-10-02T19:24:57.382Z,24.01
2022-10-02T19:27:32.226Z,24.00
2022-10-02T19:30:21.485Z,23.99
2022-10-02T19:32:51.858Z,23.98
2022-10-02T19:35:30.951Z,23.97
2022-10-02T19:38:34.747Z,23.96
2022-10-02T19:41:23.715Z,23.94
2022-10-02T19:44:01.470Z,23.93
2022-10-02T19:46:38.117Z,23.92
2022-10-02T19:49:13.115Z,23.92
2022-10-02T19:51:46.618Z,23.91
2022-10-02T19:54:34.554Z,23.90
2022-10-02T19:57:18.296Z,23.89
2022-10-02T19:59:52.400Z,23.88
2022-10-02T20:02:32.785Z,23.87
2022-10-02T20:05:04.320Z,23.86
2022-10-02T20:07:37.409Z,23.85
2022-10-02T20:10:15.313Z,23.85
2022-10-02T20:13:16.984Z,23.83
2022-10-02T20:16:12.828Z,23.83
2022-10-02T20:18:41.070Z,23.82
2022-10-02T20:21:23.787Z,23.81
2022-10-02T20:23:57.521Z,23.81
2022-10-02T20:26:35.705Z,23.79
2022-10-02T20:29:12.028Z,23.79
2022-10-02T20:31:48.142Z,23.78
2022-10-02T20:34:43.631Z,23.78
2022-10-02T20:37:25.326Z,23.77
2022-10-02T20:40:02.123Z,23.76
2022-10-02T20:42:43.292Z,23.75
2022-10-02T20:45:13.131Z,23.74
2022-10-02T20:47:56.375Z,23.73
2022-10-02T20:50:43.236Z,23.72
2022-10-02T20:53:48.895Z,23.72
2022-10-02T20:56:41.135Z,23.71
2022-10-02T20:59:28.354Z,23.70
2022-10-02T21:02:21.042Z,23.69
2022-10-02T21:04:56.130Z,23.69
2022-10-02T21:07:59.173Z,23.67
2022-10-02T21:10:54.880Z,23.67
2022-10-02T21:13:44.731Z,23.65
2022-10-02T21:16:53.906Z,23.65
2022-10-02T21:19:56.162Z,23.64
2022-10-02T21:22:48.987Z,23.63
2022-10-02T21:25:38.262Z,23.62
2022-10-02T21:28:24.469Z,23.61
2022-10-02T21:31:04.676Z,23.59
2022-10-02T21:33:42.101Z,23.58
2022-10-02T21:36:31.592Z,23.57
2022-10-02T21:39:27.016Z,23.55
2022-10-02T21:42:22.707Z,23.53
2022-10-02T21:45:15.462Z,23.52
2022-10-02T21:48:04.733Z,23.50
2022-10-02T21:51:17.134Z,23.49
2022-10-02T21:54:05.075Z,23.48
2022-10-02T21:56:36.119Z,23.47
2022-10-02T21:59:04.291Z,23.45
2022-10-02T22:02:03.814Z,23.44
2022-10-02T22:04:53.190Z,23.42
2022-10-02T22:07:32.606Z,23.40
2022-10-02T22:10:18.556Z,23.40
2022-10-02T22:12:57.532Z,23.39
2022-10-02T22:15:45.528Z,23.37
2022-10-02T22:18:40.473Z,23.36
2022-10-02T22:21:35.742Z,23.35
2022-10-02T22:24:33.261Z,23.35
2022-10-02T22:27:22.409Z,23.33
2022-10-02T22:29:51.398Z,23.33
2022-10-02T22:33:11.798Z,23.32
2022-10-02T22:36:04.167Z,23.31
2022-10-02T22:38:35.741Z,23.30
2022-10-02T22:41:19.737Z,23.28
2022-10-02T22:43:53.921Z,23.27
2022-10-02T22:46:31.509Z,23.26
2022-10-02T22:48:59.437Z,23.26
2022-10-02T22:52:10.909Z,23.25
2022-10-02T22:54:47.382Z,23.24
2022-10-02T22:57:21.093Z,23.23
2022-10-02T22:59:59.502Z,23.23
2022-10-02T23:02:31.647Z,23.22
2022-10-02T23:05:05.787Z,23.21
2022-10-02T23:07:45.399Z,23.21
2022-10-02T23:10:28.848Z,23.20
2022-10-02T23:13:26.721Z,23.19
2022-10-02T23:15:58.814Z,23.18
2022-10-02T23:19:14.887Z,23.17
2022-10-02T23:22:01.387Z,23.16
2022-10-02T23:24:38.779Z,23.16
2022-10-02T23:27:10.642Z,23.16
2022-10-02T23:30:05.271Z,23.16
2022-10-02T23:32:48.219Z,23.15
2022-10-02T23:35:39.266Z,23.14
2022-10-02T23:38:24.029Z,23.13
2022-10-02T23:41:36.839Z,23.13
2022-10-02T23:44:33.190Z,23.12
2022-10-02T23:47:11.593Z,23.11
2022-10-02T23:49:45.527Z,23.10
2022-10-02T23:52:53.922Z,23.09
2022-10-02T23:55:45.339Z,23.09
2022-10-02T23:58:24.680Z,23.08
